Time,TemperatureF,DewpointF,PressureIn,WindDirection,WindDirectionDegrees,WindSpeedMPH,WindSpeedGustMPH,Humidity,HourlyPrecipIn,Conditions,Clouds,dailyrainin,SolarRadiationWatts/m^2,SoftwareType,DateUTC
2013-04-30 00:00:00,64.7,62.9,29.91,NE,36,0.0,0.5,94,0.00,RA,,0.00,0.0,WeatherDisplay:10.37,2013-04-30 04:00:00,
2013-04-30 00:01:00,64.7,62.9,29.91,NE,36,1.4,1.4,94,0.00,RA,,0.00,0.0,WeatherDisplay:10.37,2013-04-30 04:01:00,
2013-04-30 00:06:00,64.7,62.9,29.91,NE,36,2.3,2.3,94,0.00,RA,,0.00,0.0,WeatherDisplay:10.37,2013-04-30 04:06:00,
2013-04-30 00:11:00,64.8,63.3,29.91,NE,36,0.0,0.0,95,0.00,SCT,,0.00,0.0,WeatherDisplay:10.37,2013-04-30 04:11:00,
2013-04-30 00:16:00,64.5,62.7,29.90,NE,36,0.0,0.0,94,0.00,SCT,,0.00,0.0,WeatherDisplay:10.37,2013-04-30 04:16:00,
2013-04-30 00:21:00,64.7,62.9,29.90,NE,36,0.0,0.0,94,0.00,SCT,,0.00,0.0,WeatherDisplay:10.37,2013-04-30 04:21:00,
2013-04-30 00:26:00,64.5,62.7,29.90,NE,36,0.0,0.0,94,0.00,SCT,,0.00,0.0,WeatherDisplay:10.37,2013-04-30 04:26:00,
2013-04-30 00:31:00,64.4,62.6,29.90,NE,36,0.0,0.0,94,0.00,BKN,,0.00,0.0,WeatherDisplay:10.37,2013-04-30 04:31:00,
2013-04-30 00:36:00,64.4,62.9,29.90,NE,36,0.0,0.0,95,0.00,BKN,,0.00,0.0,WeatherDisplay:10.37,2013-04-30 04:36:00,
2013-04-30 00:41:00,64.2,62.7,29.90,NE,36,0.0,0.0,95,0.00,BKN,,0.00,0.0,WeatherDisplay:10.37,2013-04-30 04:41:00,
2013-04-30 00:46:00,64.2,62.7,29.90,NE,36,2.8,2.8,95,0.00,BKN,,0.00,0.0,WeatherDisplay:10.37,2013-04-30 04:46:00,
2013-04-30 00:51:00,64.2,62.7,29.90,NE,36,0.0,0.0,95,0.00,BKN,,0.00,0.0,WeatherDisplay:10.37,2013-04-30 04:51:00,
2013-04-30 00:56:00,64.3,62.8,29.90,NE,36,1.4,1.4,95,0.00,BKN,,0.00,0.0,WeatherDisplay:10.37,2013-04-30 04:56:00,
2013-04-30 01:01:00,64.5,63.0,29.90,NNE,30,2.8,2.8,95,0.00,BKN,,0.00,0.0,WeatherDisplay:10.37,2013-04-30 05:01:00,
2013-04-30 01:06:00,64.5,63.0,29.90,NNE,30,0.0,0.0,95,0.00,BKN,,0.00,0.0,WeatherDisplay:10.37,2013-04-30 05:06:00,
2013-04-30 01:11:00,64.5,63.0,29.90,NNE,30,0.0,0.0,95,0.00,BKN,,0.00,0.0,WeatherDisplay:10.37,2013-04-30 05:11:00,
2013-04-30 01:16:00,64.6,63.1,29.90,NNE,30,5.8,5.8,95,0.00,BKN,,0.00,0.0,WeatherDisplay:10.37,2013-04-30 05:16:00,
2013-04-30 01:21:00,64.6,63.1,29.90,NNE,30,0.0,0.1,95,0.00,BKN,,0.00,0.0,WeatherDisplay:10.37,2013-04-30 05:21:00,
2013-04-30 01:26:00,64.7,63.2,29.90,NNE,30,2.3,2.3,95,0.00,BKN,,0.00,0.0,WeatherDisplay:10.37,2013-04-30 05:26:00,
2013-04-30 01:31:00,64.9,63.4,29.89,NNE,30,2.3,2.3,95,0.00,BKN,,0.00,0.0,WeatherDisplay:10.37,2013-04-30 05:31:00,
2013-04-30 01:36:00,64.8,63.3,29.89,NNE,30,4.6,4.6,95,0.00,BKN,,0.00,0.0,WeatherDisplay:10.37,2013-04-30 05:36:00,
2013-04-30 01:41:00,64.7,63.2,29.89,NNE,30,5.8,5.8,95,0.00,BKN,,0.00,0.0,WeatherDisplay:10.37,2013-04-30 05:41:00,
2013-04-30 01:46:00,64.6,63.1,29.89,NNE,30,1.1,1.1,95,0.00,BKN,,0.00,0.0,WeatherDisplay:10.37,2013-04-30 05:46:00,
2013-04-30 01:51:00,64.5,63.0,29.89,NNE,30,0.0,0.0,95,0.00,BKN,,0.00,0.0,WeatherDisplay:10.37,2013-04-30 05:51:00,
2013-04-30 01:56:00,64.5,63.0,29.89,NNE,30,1.1,0.0,95,0.00,BKN,,0.00,0.0,WeatherDisplay:10.37,2013-04-30 05:56:00,
2013-04-30 02:01:00,64.4,62.9,29.89,NNE,30,0.0,0.0,95,0.00,BKN,,0.00,0.0,WeatherDisplay:10.37,2013-04-30 06:01:00,
2013-04-30 02:06:00,64.4,62.9,29.89,NNE,30,0.0,0.0,95,0.00,BKN,,0.00,0.0,WeatherDisplay:10.37,2013-04-30 06:06:00,
2013-04-30 02:11:00,64.3,62.8,29.89,NNE,30,0.0,0.0,95,0.00,BKN,,0.00,0.0,WeatherDisplay:10.37,2013-04-30 06:11:00,
2013-04-30 02:16:00,64.2,62.7,29.89,NNE,30,0.0,0.0,95,0.00,BKN,,0.00,0.0,WeatherDisplay:10.37,2013-04-30 06:16:00,
2013-04-30 02:21:00,64.2,62.7,29.89,NNE,30,0.0,0.0,95,0.00,BKN,,0.00,0.0,WeatherDisplay:10.37,2013-04-30 06:21:00,
2013-04-30 02:26:00,64.2,62.7,29.89,NNE,30,0.0,0.0,95,0.00,BKN,,0.00,0.0,WeatherDisplay:10.37,2013-04-30 06:26:00,
2013-04-30 02:31:00,64.1,62.6,29.89,NNE,30,0.0,0.0,95,0.00,BKN,,0.00,0.0,WeatherDisplay:10.37,2013-04-30 06:31:00,
2013-04-30 02:36:00,64.2,62.7,29.89,NNE,30,0.0,0.0,95,0.00,BKN,,0.00,0.0,WeatherDisplay:10.37,2013-04-30 06:36:00,
2013-04-30 02:41:00,64.4,62.9,29.89,NNE,30,0.0,0.0,95,0.00,BKN,,0.00,0.0,WeatherDisplay:10.37,2013-04-30 06:41:00,
2013-04-30 02:46:00,64.5,63.0,29.90,NNE,30,0.0,0.0,95,0.00,BKN,,0.00,0.0,WeatherDisplay:10.37,2013-04-30 06:46:00,
2013-04-30 02:51:00,64.3,62.8,29.90,NNE,30,0.0,0.0,95,0.00,BKN,,0.00,0.0,WeatherDisplay:10.37,2013-04-30 06:51:00,
2013-04-30 02:56:00,64.5,63.0,29.90,NNE,30,0.0,0.0,95,0.00,BKN,,0.00,0.0,WeatherDisplay:10.37,2013-04-30 06:56:00,
2013-04-30 03:01:00,64.7,63.2,29.90,NNE,30,0.0,0.0,95,0.00,OVC,,0.00,0.0,WeatherDisplay:10.37,2013-04-30 07:01:00,
2013-04-30 03:06:00,64.6,63.1,29.90,NNE,30,0.0,0.0,95,0.00,OVC,,0.00,0.0,WeatherDisplay:10.37,2013-04-30 07:06:00,
2013-04-30 03:11:00,64.5,63.0,29.90,NNE,30,0.0,0.0,95,0.00,OVC,,0.00,0.0,WeatherDisplay:10.37,2013-04-30 07:11:00,
2013-04-30 03:16:00,64.7,63.2,29.90,NNE,30,0.0,0.0,95,0.00,OVC,,0.00,0.0,WeatherDisplay:10.37,2013-04-30 07:16:00,
2013-04-30 03:21:00,64.5,63.0,29.90,NNE,30,0.0,0.0,95,0.00,OVC,,0.00,0.0,WeatherDisplay:10.37,2013-04-30 07:21:00,
2013-04-30 03:26:00,64.5,63.0,29.90,NNE,30,0.0,0.0,95,0.00,OVC,,0.00,0.0,WeatherDisplay:10.37,2013-04-30 07:26:00,
2013-04-30 03:31:00,64.5,63.0,29.90,NNE,30,0.0,0.0,95,0.00,OVC,,0.00,0.0,WeatherDisplay:10.37,2013-04-30 07:31:00,
2013-04-30 03:36:00,64.7,63.2,29.90,NNE,30,0.0,0.0,95,0.00,OVC,,0.00,0.0,WeatherDisplay:10.37,2013-04-30 07:36:00,
2013-04-30 03:41:00,64.7,63.2,29.90,NNE,30,0.0,0.0,95,0.00,OVC,,0.00,0.0,WeatherDisplay:10.37,2013-04-30 07:41:00,
2013-04-30 03:46:00,64.5,63.0,29.90,NNE,30,0.0,0.0,95,0.00,OVC,,0.00,0.0,WeatherDisplay:10.37,2013-04-30 07:46:00,
2013-04-30 03:51:00,64.6,63.1,29.90,NNE,30,0.0,0.0,95,0.00,OVC,,0.00,0.0,WeatherDisplay:10.37,2013-04-30 07:51:00,
2013-04-30 03:56:00,64.5,63.0,29.90,NNE,30,0.0,0.0,95,0.00,OVC,,0.00,0.0,WeatherDisplay:10.37,2013-04-30 07:56:00,
2013-04-30 04:01:00,64.5,63.0,29.91,NNE,30,0.0,0.0,95,0.00,OVC,,0.00,0.0,WeatherDisplay:10.37,2013-04-30 08:01:00,
2013-04-30 04:06:00,64.5,63.0,29.91,NNE,30,0.0,0.0,95,0.00,OVC,,0.00,0.0,WeatherDisplay:10.37,2013-04-30 08:06:00,
2013-04-30 04:11:00,64.4,62.9,29.91,NNE,30,0.0,0.0,95,0.00,OVC,,0.00,0.0,WeatherDisplay:10.37,2013-04-30 08:11:00,
2013-04-30 04:16:00,64.5,63.0,29.91,NNE,30,0.0,0.0,95,0.00,OVC,,0.00,0.0,WeatherDisplay:10.37,2013-04-30 08:16:00,
2013-04-30 04:22:00,64.5,63.0,29.91,NNE,30,0.0,0.0,95,0.00,OVC,,0.00,0.0,WeatherDisplay:10.37,2013-04-30 08:22:00,
2013-04-30 04:27:00,64.4,62.9,29.91,NNE,30,0.0,0.0,95,0.00,OVC,,0.00,0.0,WeatherDisplay:10.37,2013-04-30 08:27:00,
2013-04-30 04:35:00,64.6,63.1,29.91,NNE,30,0.0,0.0,95,0.00,OVC,,0.00,0.0,WeatherDisplay:10.37,2013-04-30 08:35:00,
2013-04-30 04:40:00,64.6,63.1,29.91,NNE,30,0.0,0.0,95,0.00,OVC,,0.00,0.0,WeatherDisplay:10.37,2013-04-30 08:40:00,
2013-04-30 04:45:00,64.6,63.1,29.91,NNE,30,0.0,0.0,95,0.00,OVC,,0.00,0.0,WeatherDisplay:10.37,2013-04-30 08:45:00,
2013-04-30 04:50:00,64.5,63.0,29.91,NNE,30,0.0,0.0,95,0.00,OVC,,0.00,0.0,WeatherDisplay:10.37,2013-04-30 08:50:00,
2013-04-30 04:55:00,64.6,63.1,29.91,NNE,30,0.0,0.0,95,0.00,OVC,,0.00,0.0,WeatherDisplay:10.37,2013-04-30 08:55:00,
2013-04-30 05:00:00,64.7,63.2,29.90,NNE,30,0.0,0.0,95,0.00,OVC,,0.00,0.0,WeatherDisplay:10.37,2013-04-30 09:00:00,
2013-04-30 05:05:00,64.7,63.2,29.90,NNE,30,0.0,0.0,95,0.00,OVC,,0.00,0.0,WeatherDisplay:10.37,2013-04-30 09:05:00,
2013-04-30 05:10:00,64.6,63.1,29.90,NNE,30,0.0,0.0,95,0.00,OVC,,0.00,0.0,WeatherDisplay:10.37,2013-04-30 09:10:00,
2013-04-30 05:15:00,64.7,63.2,29.90,NNE,30,0.0,0.0,95,0.00,OVC,,0.00,0.0,WeatherDisplay:10.37,2013-04-30 09:15:00,
2013-04-30 05:20:00,64.8,63.3,29.90,NNE,30,0.0,0.0,95,0.00,OVC,,0.00,0.0,WeatherDisplay:10.37,2013-04-30 09:20:00,
2013-04-30 05:26:00,64.7,63.2,29.90,NNE,30,0.0,0.0,95,0.00,OVC,,0.00,0.0,WeatherDisplay:10.37,2013-04-30 09:26:00,
2013-04-30 05:31:00,64.8,63.3,29.89,NNE,30,0.0,0.0,95,0.00,OVC,,0.00,0.0,WeatherDisplay:10.37,2013-04-30 09:31:00,
2013-04-30 05:36:00,64.9,63.4,29.89,NNE,30,0.0,0.0,95,0.00,-RA,,0.00,0.0,WeatherDisplay:10.37,2013-04-30 09:36:00,
2013-04-30 05:41:00,64.7,63.2,29.89,NNE,30,0.0,0.0,95,0.00,-RA,,0.00,0.0,WeatherDisplay:10.37,2013-04-30 09:41:00,
2013-04-30 05:46:00,64.7,63.2,29.89,NNE,30,0.0,0.0,95,0.00,-RA,,0.00,0.0,WeatherDisplay:10.37,2013-04-30 09:46:00,
2013-04-30 05:51:00,64.9,63.4,29.89,NNE,30,0.0,0.0,95,0.00,OVC,,0.00,0.0,WeatherDisplay:10.37,2013-04-30 09:51:00,
2013-04-30 05:56:00,64.9,63.4,29.89,NNE,30,0.0,0.0,95,0.00,OVC,,0.00,0.0,WeatherDisplay:10.37,2013-04-30 09:56:00,
2013-04-30 06:01:00,64.9,63.4,29.90,NNE,30,0.0,0.0,95,0.00,OVC,,0.00,0.0,WeatherDisplay:10.37,2013-04-30 10:01:00,
2013-04-30 06:06:00,64.8,63.3,29.90,NNE,30,0.0,0.0,95,0.00,OVC,,0.00,0.0,WeatherDisplay:10.37,2013-04-30 10:06:00,
2013-04-30 06:11:00,64.8,63.3,29.90,NNE,30,0.0,0.0,95,0.00,OVC,,0.00,0.0,WeatherDisplay:10.37,2013-04-30 10:11:00,
2013-04-30 06:16:00,64.7,63.2,29.90,NNE,30,0.0,0.0,95,0.00,OVC,,0.00,0.0,WeatherDisplay:10.37,2013-04-30 10:16:00,
2013-04-30 06:21:00,64.7,63.2,29.90,NNE,30,0.0,0.0,95,0.00,OVC,,0.00,0.0,WeatherDisplay:10.37,2013-04-30 10:21:00,
2013-04-30 06:26:00,64.6,63.1,29.90,NNE,30,0.0,0.0,95,0.00,OVC,,0.00,0.0,WeatherDisplay:10.37,2013-04-30 10:26:00,
2013-04-30 06:31:00,64.5,63.0,29.90,NNE,30,0.0,0.0,95,0.00,OVC,,0.00,0.0,WeatherDisplay:10.37,2013-04-30 10:31:00,
2013-04-30 06:36:00,64.5,63.0,29.90,NNE,30,0.0,0.0,95,0.00,OVC,,0.00,0.0,WeatherDisplay:10.37,2013-04-30 10:36:00,
2013-04-30 06:41:00,64.6,63.1,29.90,NE,35,0.0,0.0,95,0.00,OVC,,0.00,0.0,WeatherDisplay:10.37,2013-04-30 10:41:00,
2013-04-30 06:46:00,64.7,63.2,29.91,NE,35,0.0,0.0,95,0.00,OVC,,0.00,0.0,WeatherDisplay:10.37,2013-04-30 10:46:00,
2013-04-30 06:51:00,64.6,63.1,29.91,NE,35,0.0,0.0,95,0.00,OVC,,0.00,0.0,WeatherDisplay:10.37,2013-04-30 10:51:00,
2013-04-30 06:56:00,64.7,63.2,29.91,NE,35,0.0,0.0,95,0.00,OVC,,0.00,0.0,WeatherDisplay:10.37,2013-04-30 10:56:00,
2013-04-30 07:01:00,64.8,63.3,29.92,NE,35,0.0,0.0,95,0.00,OVC,,0.00,5.0,WeatherDisplay:10.37,2013-04-30 11:01:00,
2013-04-30 07:06:00,65.0,63.5,29.92,NE,35,0.0,0.0,95,0.00,OVC,,0.00,5.0,WeatherDisplay:10.37,2013-04-30 11:06:00,
2013-04-30 07:11:00,65.0,63.5,29.92,NE,35,0.0,0.0,95,0.00,OVC,,0.00,11.0,WeatherDisplay:10.37,2013-04-30 11:11:00,
2013-04-30 07:16:00,65.0,63.5,29.92,NE,35,0.0,0.0,95,0.00,OVC,,0.00,18.0,WeatherDisplay:10.37,2013-04-30 11:16:00,
2013-04-30 07:21:00,65.1,63.6,29.92,NE,35,0.0,0.0,95,0.00,OVC,,0.00,19.0,WeatherDisplay:10.37,2013-04-30 11:21:00,
2013-04-30 07:26:00,65.3,63.8,29.92,NE,35,0.0,0.0,95,0.00,OVC,,0.00,18.0,WeatherDisplay:10.37,2013-04-30 11:26:00,
2013-04-30 07:31:00,65.5,64.0,29.93,NE,35,0.0,0.0,95,0.00,OVC,,0.00,16.0,WeatherDisplay:10.37,2013-04-30 11:31:00,
2013-04-30 07:36:00,65.5,64.0,29.93,NE,35,0.0,0.0,95,0.00,OVC,,0.00,19.0,WeatherDisplay:10.37,2013-04-30 11:36:00,
2013-04-30 07:41:00,65.5,64.0,29.93,NE,35,0.0,0.0,95,0.00,OVC,,0.00,28.0,WeatherDisplay:10.37,2013-04-30 11:41:00,
2013-04-30 07:46:00,65.7,64.2,29.93,NE,35,0.0,0.0,95,0.00,BKN,,0.00,33.0,WeatherDisplay:10.37,2013-04-30 11:46:00,
2013-04-30 07:51:00,65.9,64.4,29.93,NE,35,0.0,0.0,95,0.00,BKN,,0.00,37.0,WeatherDisplay:10.37,2013-04-30 11:51:00,
2013-04-30 07:56:00,66.1,64.6,29.93,NE,35,0.0,0.0,95,0.00,BKN,,0.00,32.0,WeatherDisplay:10.37,2013-04-30 11:56:00,
2013-04-30 08:01:00,66.1,64.6,29.93,NE,35,0.0,0.0,95,0.00,BKN,,0.00,32.0,WeatherDisplay:10.37,2013-04-30 12:01:00,
2013-04-30 08:06:00,66.2,64.7,29.93,NE,35,0.0,0.0,95,0.00,BKN,,0.00,37.0,WeatherDisplay:10.37,2013-04-30 12:06:00,
2013-04-30 08:11:00,66.5,65.0,29.93,NE,35,0.0,0.0,95,0.00,BKN,,0.00,44.0,WeatherDisplay:10.37,2013-04-30 12:11:00,
2013-04-30 08:16:00,66.5,65.0,29.94,NE,35,0.0,0.0,95,0.00,BKN,,0.00,46.0,WeatherDisplay:10.37,2013-04-30 12:16:00,
2013-04-30 08:21:00,66.5,65.0,29.94,NE,35,0.0,0.0,95,0.00,BKN,,0.00,49.0,WeatherDisplay:10.37,2013-04-30 12:21:00,
2013-04-30 08:26:00,66.7,65.2,29.94,NE,35,0.0,0.0,95,0.00,BKN,,0.00,70.0,WeatherDisplay:10.37,2013-04-30 12:26:00,
2013-04-30 08:31:00,67.2,65.7,29.94,NE,35,0.0,0.0,95,0.00,BKN,,0.00,79.0,WeatherDisplay:10.37,2013-04-30 12:31:00,
2013-04-30 08:36:00,67.1,65.6,29.94,NE,35,0.0,0.0,95,0.00,BKN,,0.00,72.0,WeatherDisplay:10.37,2013-04-30 12:36:00,
2013-04-30 08:41:00,67.1,65.6,29.94,NE,36,0.0,0.0,95,0.00,BKN,,0.00,90.0,WeatherDisplay:10.37,2013-04-30 12:41:00,
2013-04-30 08:46:00,67.2,65.7,29.94,NE,36,0.0,0.0,95,0.00,BKN,,0.00,98.0,WeatherDisplay:10.37,2013-04-30 12:46:00,
2013-04-30 08:51:00,67.5,66.0,29.94,NE,36,0.0,0.0,95,0.00,BKN,,0.00,104.0,WeatherDisplay:10.37,2013-04-30 12:51:00,
2013-04-30 08:56:00,67.5,66.0,29.94,NE,36,0.0,0.0,95,0.00,BKN,,0.00,114.0,WeatherDisplay:10.37,2013-04-30 12:56:00,
2013-04-30 09:01:00,67.8,66.3,29.94,NE,36,0.0,0.0,95,0.00,BKN,,0.00,132.0,WeatherDisplay:10.37,2013-04-30 13:01:00,
2013-04-30 09:06:00,68.4,66.9,29.94,NE,36,0.0,0.0,95,0.00,BKN,,0.00,148.0,WeatherDisplay:10.37,2013-04-30 13:06:00,
2013-04-30 09:11:00,68.3,66.8,29.94,NE,36,0.0,0.0,95,0.00,BKN,,0.00,156.0,WeatherDisplay:10.37,2013-04-30 13:11:00,
2013-04-30 09:16:00,68.7,67.2,29.94,NE,36,0.0,0.0,95,0.00,BKN,,0.00,167.0,WeatherDisplay:10.37,2013-04-30 13:16:00,
2013-04-30 09:21:00,68.8,67.3,29.94,NE,36,0.0,0.0,95,0.00,BKN,,0.00,192.0,WeatherDisplay:10.37,2013-04-30 13:21:00,
2013-04-30 09:26:00,68.4,66.9,29.94,NE,36,0.0,0.0,95,0.00,BKN,,0.00,186.0,WeatherDisplay:10.37,2013-04-30 13:26:00,
2013-04-30 09:31:00,69.0,67.5,29.95,NE,36,1.1,0.0,95,0.00,BKN,,0.00,195.0,WeatherDisplay:10.37,2013-04-30 13:31:00,
2013-04-30 09:36:00,68.8,67.3,29.95,NE,36,0.0,0.0,95,0.00,BKN,,0.00,218.0,WeatherDisplay:10.37,2013-04-30 13:36:00,
2013-04-30 09:41:00,69.4,67.9,29.95,NE,36,4.6,4.6,95,0.00,BKN,,0.00,200.0,WeatherDisplay:10.37,2013-04-30 13:41:00,
2013-04-30 09:46:00,69.4,67.9,29.95,NE,36,0.0,0.0,95,0.00,BKN,,0.00,230.0,WeatherDisplay:10.37,2013-04-30 13:46:00,
2013-04-30 09:51:00,69.2,67.7,29.95,NNE,29,2.3,2.3,95,0.00,BKN,,0.00,190.0,WeatherDisplay:10.37,2013-04-30 13:51:00,
2013-04-30 09:56:00,69.7,68.2,29.95,NNE,29,1.4,2.4,95,0.00,BKN,,0.00,160.0,WeatherDisplay:10.37,2013-04-30 13:56:00,
2013-04-30 10:01:00,69.5,68.0,29.96,NNE,29,1.4,1.4,95,0.00,SCT,,0.00,181.0,WeatherDisplay:10.37,2013-04-30 14:01:00,
2013-04-30 10:06:00,69.9,68.4,29.96,NNE,29,2.8,2.8,95,0.00,SCT,,0.00,499.0,WeatherDisplay:10.37,2013-04-30 14:06:00,
2013-04-30 10:11:00,70.8,69.3,29.96,NNE,29,1.4,1.4,95,0.00,SCT,,0.00,722.0,WeatherDisplay:10.37,2013-04-30 14:11:00,
2013-04-30 10:16:00,72.0,70.5,29.96,NNE,29,1.1,1.1,95,0.00,SCT,,0.00,731.0,WeatherDisplay:10.37,2013-04-30 14:16:00,
2013-04-30 10:21:00,72.0,70.2,29.96,NNE,29,1.4,1.4,94,0.00,SCT,,0.00,729.0,WeatherDisplay:10.37,2013-04-30 14:21:00,
2013-04-30 10:26:00,72.3,70.2,29.96,NNE,29,1.1,0.0,93,0.00,SCT,,0.00,724.0,WeatherDisplay:10.37,2013-04-30 14:26:00,
2013-04-30 10:31:00,73.5,71.4,29.95,NNE,29,1.4,1.4,93,0.00,SCT,,0.00,744.0,WeatherDisplay:10.37,2013-04-30 14:31:00,
2013-04-30 10:36:00,73.9,70.5,29.95,NNE,29,1.1,1.1,89,0.00,SCT,,0.00,747.0,WeatherDisplay:10.37,2013-04-30 14:36:00,
2013-04-30 10:41:00,73.8,70.4,29.95,NNE,29,1.4,1.4,89,0.00,SCT,,0.00,766.0,WeatherDisplay:10.37,2013-04-30 14:41:00,
2013-04-30 10:46:00,74.7,71.6,29.95,NNE,30,0.0,0.3,90,0.00,SCT,,0.00,793.0,WeatherDisplay:10.37,2013-04-30 14:46:00,
2013-04-30 10:52:00,75.5,71.0,29.95,NNE,30,1.1,0.0,86,0.00,SCT,,0.00,591.0,WeatherDisplay:10.37,2013-04-30 14:52:00,
2013-04-30 10:57:00,75.9,71.4,29.95,NNE,30,0.0,0.1,86,0.00,SCT,,0.00,807.0,WeatherDisplay:10.37,2013-04-30 14:57:00,
2013-04-30 11:02:00,76.4,71.6,29.95,NNE,30,1.1,1.2,85,0.00,SCT,,0.00,722.0,WeatherDisplay:10.37,2013-04-30 15:02:00,
2013-04-30 11:07:00,77.0,71.1,29.95,NNE,30,0.0,0.0,82,0.00,SCT,,0.00,837.0,WeatherDisplay:10.37,2013-04-30 15:07:00,
2013-04-30 11:12:00,77.5,71.2,29.95,NNE,30,4.1,4.1,81,0.00,SCT,,0.00,860.0,WeatherDisplay:10.37,2013-04-30 15:12:00,
2013-04-30 11:17:00,77.8,71.1,29.95,NNE,30,4.6,4.6,80,0.00,SCT,,0.00,856.0,WeatherDisplay:10.37,2013-04-30 15:17:00,
2013-04-30 11:22:00,77.7,71.4,29.95,NNE,30,1.4,1.4,81,0.01,RA,,0.01,895.0,WeatherDisplay:10.37,2013-04-30 15:22:00,
2013-04-30 11:27:00,78.1,71.8,29.95,NNE,30,4.6,4.6,81,0.01,RA,,0.01,879.0,WeatherDisplay:10.37,2013-04-30 15:27:00,
2013-04-30 11:32:00,78.1,69.9,29.95,NNE,30,2.3,2.3,76,0.01,SCT,,0.01,881.0,WeatherDisplay:10.37,2013-04-30 15:32:00,
2013-04-30 11:37:00,78.2,69.6,29.95,NNE,30,5.8,5.8,75,0.01,SCT,,0.01,891.0,WeatherDisplay:10.37,2013-04-30 15:37:00,
2013-04-30 11:42:00,78.0,67.0,29.95,NNE,30,0.0,0.0,69,0.01,SCT,,0.01,900.0,WeatherDisplay:10.37,2013-04-30 15:42:00,
2013-04-30 11:47:00,78.1,68.7,29.95,NNE,30,2.3,2.3,73,0.01,SCT,,0.01,909.0,WeatherDisplay:10.37,2013-04-30 15:47:00,
2013-04-30 11:52:00,79.4,71.2,29.95,NNE,30,1.1,1.1,76,0.01,SCT,,0.01,919.0,WeatherDisplay:10.37,2013-04-30 15:52:00,
2013-04-30 11:57:00,79.3,69.1,29.95,NNE,31,2.3,2.3,71,0.01,SCT,,0.01,928.0,WeatherDisplay:10.37,2013-04-30 15:57:00,
2013-04-30 12:02:00,79.9,70.1,29.94,NNE,31,2.8,2.8,72,0.01,SCT,,0.01,932.0,WeatherDisplay:10.37,2013-04-30 16:02:00,
2013-04-30 12:07:00,79.4,69.2,29.94,NNE,31,2.3,2.3,71,0.01,SCT,,0.01,939.0,WeatherDisplay:10.37,2013-04-30 16:07:00,
2013-04-30 12:12:00,80.1,69.0,29.94,NNE,31,4.1,4.1,69,0.01,SCT,,0.01,947.0,WeatherDisplay:10.37,2013-04-30 16:12:00,
2013-04-30 12:17:00,80.6,70.3,29.94,NNE,13,2.3,2.3,71,0.01,SCT,,0.01,954.0,WeatherDisplay:10.37,2013-04-30 16:17:00,
2013-04-30 12:22:00,80.5,69.4,29.94,NE,35,4.6,4.6,69,0.00,SCT,,0.01,958.0,WeatherDisplay:10.37,2013-04-30 16:22:00,
2013-04-30 12:27:00,81.0,70.7,29.94,NE,35,1.4,1.4,71,0.00,SCT,,0.01,963.0,WeatherDisplay:10.37,2013-04-30 16:27:00,
2013-04-30 12:32:00,81.5,69.5,29.94,NE,35,2.3,2.3,67,0.00,SCT,,0.01,970.0,WeatherDisplay:10.37,2013-04-30 16:32:00,
2013-04-30 12:37:00,81.2,66.5,29.94,North,360,2.3,2.3,61,0.00,SCT,,0.01,981.0,WeatherDisplay:10.37,2013-04-30 16:37:00,
2013-04-30 12:42:00,81.4,67.1,29.94,NNE,30,1.1,1.1,62,0.00,SCT,,0.01,979.0,WeatherDisplay:10.37,2013-04-30 16:42:00,
2013-04-30 12:47:00,81.4,67.1,29.93,NNE,30,1.4,1.4,62,0.00,SCT,,0.01,981.0,WeatherDisplay:10.37,2013-04-30 16:47:00,
2013-04-30 12:52:00,82.0,68.2,29.93,NNE,30,2.3,2.3,63,0.00,SCT,,0.01,984.0,WeatherDisplay:10.37,2013-04-30 16:52:00,
2013-04-30 12:57:00,81.8,68.4,29.93,NNE,15,4.6,4.6,64,0.00,SCT,,0.01,984.0,WeatherDisplay:10.37,2013-04-30 16:57:00,
2013-04-30 13:02:00,81.9,68.5,29.93,NE,35,2.3,2.3,64,0.00,SCT,,0.01,991.0,WeatherDisplay:10.37,2013-04-30 17:02:00,
2013-04-30 13:07:00,82.8,68.4,29.93,NNE,29,4.6,4.6,62,0.00,SCT,,0.01,993.0,WeatherDisplay:10.37,2013-04-30 17:07:00,
2013-04-30 13:12:00,83.0,69.1,29.93,NNE,30,1.4,1.4,63,0.00,SCT,,0.01,997.0,WeatherDisplay:10.37,2013-04-30 17:12:00,
2013-04-30 13:17:00,82.9,68.5,29.93,NNE,30,4.6,4.6,62,0.00,SCT,,0.01,995.0,WeatherDisplay:10.37,2013-04-30 17:17:00,
2013-04-30 13:22:00,82.8,67.0,29.93,NNE,30,2.3,2.3,59,0.00,SCT,,0.01,995.0,WeatherDisplay:10.37,2013-04-30 17:22:00,
2013-04-30 13:27:00,82.4,68.1,29.93,NNE,30,4.6,4.6,62,0.00,SCT,,0.01,998.0,WeatherDisplay:10.37,2013-04-30 17:27:00,
2013-04-30 13:32:00,83.6,70.1,29.92,NNE,30,6.9,6.9,64,0.00,SCT,,0.01,993.0,WeatherDisplay:10.37,2013-04-30 17:32:00,
2013-04-30 13:37:00,83.2,67.9,29.92,NNE,32,4.6,4.6,60,0.00,SCT,,0.01,993.0,WeatherDisplay:10.37,2013-04-30 17:37:00,
2013-04-30 13:42:00,83.1,70.6,29.92,NE,34,4.1,4.1,66,0.00,SCT,,0.01,983.0,WeatherDisplay:10.37,2013-04-30 17:42:00,
2013-04-30 13:47:00,83.9,68.5,29.92,NNE,14,2.8,2.8,60,0.00,SCT,,0.01,986.0,WeatherDisplay:10.37,2013-04-30 17:47:00,
2013-04-30 13:52:00,83.6,67.8,29.92,NNE,29,8.1,8.1,59,0.00,SCT,,0.01,997.0,WeatherDisplay:10.37,2013-04-30 17:52:00,
2013-04-30 13:57:00,84.2,68.3,29.92,NNE,13,4.6,4.6,59,0.00,SCT,,0.01,988.0,WeatherDisplay:10.37,2013-04-30 17:57:00,
2013-04-30 14:02:00,85.1,70.1,29.92,NNE,31,2.3,2.4,61,0.00,SCT,,0.01,986.0,WeatherDisplay:10.37,2013-04-30 18:02:00,
2013-04-30 14:07:00,84.2,67.8,29.92,NNE,14,1.1,1.1,58,0.00,SCT,,0.01,986.0,WeatherDisplay:10.37,2013-04-30 18:07:00,
2013-04-30 14:12:00,85.1,69.2,29.92,NE,36,6.9,6.9,59,0.00,SCT,,0.01,981.0,WeatherDisplay:10.37,2013-04-30 18:12:00,
2013-04-30 14:17:00,85.0,67.5,29.91,NE,36,4.6,4.8,56,0.00,SCT,,0.01,981.0,WeatherDisplay:10.37,2013-04-30 18:17:00,
2013-04-30 14:22:00,85.7,69.2,29.91,NE,35,2.3,2.3,58,0.00,SCT,,0.01,983.0,WeatherDisplay:10.37,2013-04-30 18:22:00,
2013-04-30 14:27:00,86.4,71.4,29.91,NNE,28,6.9,6.9,61,0.00,SCT,,0.01,979.0,WeatherDisplay:10.37,2013-04-30 18:27:00,
2013-04-30 14:32:00,86.3,70.8,29.91,NNE,28,1.1,1.1,60,0.00,SCT,,0.01,977.0,WeatherDisplay:10.37,2013-04-30 18:32:00,
2013-04-30 14:37:00,87.0,71.4,29.91,NNE,33,4.6,4.6,60,0.00,SCT,,0.01,984.0,WeatherDisplay:10.37,2013-04-30 18:37:00,
2013-04-30 14:42:00,87.0,68.3,29.91,NNE,33,2.8,2.8,54,0.00,SCT,,0.01,991.0,WeatherDisplay:10.37,2013-04-30 18:42:00,
2013-04-30 14:47:00,86.5,69.5,29.91,NNE,33,2.8,2.8,57,0.00,SCT,,0.01,988.0,WeatherDisplay:10.37,2013-04-30 18:47:00,
2013-04-30 14:52:00,86.8,71.7,29.91,NNE,16,4.6,4.6,61,0.00,SCT,,0.01,1016.0,WeatherDisplay:10.37,2013-04-30 18:52:00,
2013-04-30 14:57:00,87.2,72.1,29.91,NNE,19,8.1,8.1,61,0.00,SCT,,0.01,1065.0,WeatherDisplay:10.37,2013-04-30 18:57:00,
2013-04-30 15:02:00,84.7,70.7,29.91,NNE,19,11.5,11.5,63,0.00,FEW,,0.01,1065.0,WeatherDisplay:10.37,2013-04-30 19:02:00,
2013-04-30 15:07:00,83.5,70.9,29.91,NNE,19,8.1,8.7,66,0.00,FEW,,0.01,237.0,WeatherDisplay:10.37,2013-04-30 19:07:00,
2013-04-30 15:12:00,82.3,70.2,29.91,NNE,17,5.8,5.8,67,0.00,FEW,,0.01,244.0,WeatherDisplay:10.37,2013-04-30 19:12:00,
2013-04-30 15:17:00,83.1,71.4,29.90,NNE,19,8.3,8.3,68,0.00,FEW,,0.01,1027.0,WeatherDisplay:10.37,2013-04-30 19:17:00,
2013-04-30 15:22:00,82.3,70.2,29.90,NNE,15,9.6,9.6,67,0.00,FEW,,0.01,197.0,WeatherDisplay:10.37,2013-04-30 19:22:00,
2013-04-30 15:27:00,82.1,71.8,29.90,NNE,17,9.6,9.6,71,0.00,FEW,,0.01,984.0,WeatherDisplay:10.37,2013-04-30 19:27:00,
2013-04-30 15:32:00,83.9,72.6,29.90,NNE,17,8.1,8.1,69,0.00,FEW,,0.01,898.0,WeatherDisplay:10.37,2013-04-30 19:32:00,
2013-04-30 15:37:00,83.7,71.6,29.90,NNE,17,5.8,5.8,67,0.00,FEW,,0.01,826.0,WeatherDisplay:10.37,2013-04-30 19:37:00,
2013-04-30 15:42:00,82.1,70.1,29.90,NNE,18,8.3,9.6,67,0.00,FEW,,0.01,853.0,WeatherDisplay:10.37,2013-04-30 19:42:00,
2013-04-30 15:47:00,82.8,71.6,29.90,NNE,15,11.5,11.5,69,0.00,FEW,,0.01,835.0,WeatherDisplay:10.37,2013-04-30 19:47:00,
2013-04-30 15:52:00,83.4,70.8,29.90,NNE,17,11.5,11.5,66,0.00,FEW,,0.01,784.0,WeatherDisplay:10.37,2013-04-30 19:52:00,
2013-04-30 15:57:00,83.2,72.0,29.90,NNE,17,9.2,9.2,69,0.00,FEW,,0.01,758.0,WeatherDisplay:10.37,2013-04-30 19:57:00,
2013-04-30 16:03:00,83.6,71.9,29.90,NNE,14,9.2,9.2,68,0.00,SCT,,0.01,738.0,WeatherDisplay:10.37,2013-04-30 20:03:00,
2013-04-30 16:08:00,83.0,70.9,29.90,NNE,15,18.4,18.4,67,0.00,SCT,,0.01,715.0,WeatherDisplay:10.37,2013-04-30 20:08:00,
2013-04-30 16:13:00,82.0,70.0,29.90,NNE,17,12.7,12.7,67,0.00,SCT,,0.01,721.0,WeatherDisplay:10.37,2013-04-30 20:13:00,
2013-04-30 16:18:00,81.8,69.3,29.90,NNE,13,9.2,10.7,66,0.00,SCT,,0.01,694.0,WeatherDisplay:10.37,2013-04-30 20:18:00,
2013-04-30 16:23:00,81.0,69.0,29.90,NNE,19,6.9,6.9,67,0.00,SCT,,0.01,698.0,WeatherDisplay:10.37,2013-04-30 20:23:00,
2013-04-30 16:28:00,81.6,70.9,29.90,NNE,18,8.1,8.1,70,0.00,SCT,,0.01,686.0,WeatherDisplay:10.37,2013-04-30 20:28:00,
2013-04-30 16:33:00,81.6,69.1,29.90,North,360,8.3,8.3,66,0.00,SCT,,0.01,649.0,WeatherDisplay:10.37,2013-04-30 20:33:00,
2013-04-30 16:38:00,80.6,68.2,29.90,NNE,13,12.7,12.7,66,0.00,SCT,,0.01,652.0,WeatherDisplay:10.37,2013-04-30 20:38:00,
2013-04-30 16:43:00,79.0,66.7,29.90,NNE,15,6.9,6.9,66,0.00,SCT,,0.01,91.0,WeatherDisplay:10.37,2013-04-30 20:43:00,
2013-04-30 16:48:00,77.5,66.1,29.91,NNE,17,12.7,12.7,68,0.00,SCT,,0.01,135.0,WeatherDisplay:10.37,2013-04-30 20:48:00,
2013-04-30 16:53:00,76.7,66.6,29.91,NNE,13,9.2,9.2,71,0.00,SCT,,0.01,199.0,WeatherDisplay:10.37,2013-04-30 20:53:00,
2013-04-30 16:58:00,76.2,66.1,29.91,NNE,16,4.6,4.6,71,0.00,SCT,,0.01,151.0,WeatherDisplay:10.37,2013-04-30 20:58:00,
2013-04-30 17:03:00,76.2,66.5,29.91,NNE,16,9.2,9.2,72,0.00,FEW,,0.01,139.0,WeatherDisplay:10.37,2013-04-30 21:03:00,
2013-04-30 17:08:00,76.0,66.7,29.91,NNE,14,13.8,13.8,73,0.00,FEW,,0.01,162.0,WeatherDisplay:10.37,2013-04-30 21:08:00,
2013-04-30 17:13:00,76.6,67.7,29.91,NNE,15,15.1,15.1,74,0.00,FEW,,0.01,171.0,WeatherDisplay:10.37,2013-04-30 21:13:00,
2013-04-30 17:18:00,76.8,67.5,29.91,NNE,16,15.0,15.0,73,0.00,FEW,,0.01,107.0,WeatherDisplay:10.37,2013-04-30 21:18:00,
2013-04-30 17:23:00,76.9,67.6,29.91,NNE,18,12.7,12.7,73,0.00,FEW,,0.01,220.0,WeatherDisplay:10.37,2013-04-30 21:23:00,
2013-04-30 17:28:00,77.1,67.4,29.91,NNE,16,12.7,12.7,72,0.00,FEW,,0.01,176.0,WeatherDisplay:10.37,2013-04-30 21:28:00,
2013-04-30 17:33:00,76.9,66.8,29.91,NNE,19,8.1,8.1,71,0.00,FEW,,0.01,438.0,WeatherDisplay:10.37,2013-04-30 21:33:00,
2013-04-30 17:38:00,76.6,66.9,29.91,NNE,18,15.0,15.0,72,0.00,FEW,,0.01,151.0,WeatherDisplay:10.37,2013-04-30 21:38:00,
2013-04-30 17:43:00,76.4,66.7,29.91,NNE,14,9.2,9.2,72,0.00,FEW,,0.01,116.0,WeatherDisplay:10.37,2013-04-30 21:43:00,
2013-04-30 17:48:00,76.4,67.5,29.91,NNE,17,9.2,9.2,74,0.00,FEW,,0.01,97.0,WeatherDisplay:10.37,2013-04-30 21:48:00,
2013-04-30 17:53:00,76.3,67.4,29.91,NNE,17,11.5,11.5,74,0.00,FEW,,0.01,76.0,WeatherDisplay:10.37,2013-04-30 21:53:00,
2013-04-30 17:58:00,76.1,67.2,29.91,NNE,16,9.2,9.2,74,0.00,FEW,,0.01,76.0,WeatherDisplay:10.37,2013-04-30 21:58:00,
2013-04-30 18:03:00,75.4,66.5,29.92,North,360,15.0,15.0,74,0.00,FEW,,0.01,70.0,WeatherDisplay:10.37,2013-04-30 22:03:00,
2013-04-30 18:08:00,75.1,66.6,29.92,NNE,15,11.5,11.5,75,0.00,FEW,,0.01,70.0,WeatherDisplay:10.37,2013-04-30 22:08:00,
2013-04-30 18:13:00,74.7,66.2,29.92,NNE,16,12.4,12.4,75,0.00,FEW,,0.01,67.0,WeatherDisplay:10.37,2013-04-30 22:13:00,
2013-04-30 18:18:00,74.4,66.3,29.93,NNE,15,6.9,6.9,76,0.00,SCT,,0.01,65.0,WeatherDisplay:10.37,2013-04-30 22:18:00,
2013-04-30 18:23:00,74.3,66.6,29.93,NNE,19,5.8,5.8,77,0.00,SCT,,0.01,67.0,WeatherDisplay:10.37,2013-04-30 22:23:00,
2013-04-30 18:28:00,74.1,66.0,29.93,NNE,13,12.7,12.7,76,0.00,SCT,,0.01,69.0,WeatherDisplay:10.37,2013-04-30 22:28:00,
2013-04-30 18:33:00,73.7,66.0,29.92,NNE,20,13.8,13.8,77,0.00,SCT,,0.01,74.0,WeatherDisplay:10.37,2013-04-30 22:33:00,
2013-04-30 18:38:00,73.4,65.4,29.92,NNE,15,8.1,8.1,76,0.00,SCT,,0.01,77.0,WeatherDisplay:10.37,2013-04-30 22:38:00,
2013-04-30 18:43:00,73.3,65.7,29.92,NNE,16,8.1,8.1,77,0.00,SCT,,0.01,76.0,WeatherDisplay:10.37,2013-04-30 22:43:00,
2013-04-30 18:48:00,73.1,65.5,29.92,NNE,16,6.9,6.9,77,0.00,SCT,,0.01,72.0,WeatherDisplay:10.37,2013-04-30 22:48:00,
2013-04-30 18:53:00,73.0,65.7,29.92,NNE,17,11.5,11.5,78,0.00,SCT,,0.01,65.0,WeatherDisplay:10.37,2013-04-30 22:53:00,
2013-04-30 18:58:00,72.8,65.5,29.92,NNE,14,12.7,12.7,78,0.00,SCT,,0.01,60.0,WeatherDisplay:10.37,2013-04-30 22:58:00,
2013-04-30 19:03:00,72.6,65.3,29.92,NNE,14,8.1,8.1,78,0.00,SCT,,0.01,56.0,WeatherDisplay:10.37,2013-04-30 23:03:00,
2013-04-30 19:08:00,72.4,65.5,29.92,NNE,19,13.8,13.8,79,0.00,SCT,,0.01,53.0,WeatherDisplay:10.37,2013-04-30 23:08:00,
2013-04-30 19:13:00,72.2,65.7,29.92,NNE,20,5.8,5.8,80,0.00,SCT,,0.01,51.0,WeatherDisplay:10.37,2013-04-30 23:13:00,
2013-04-30 19:18:00,72.1,65.6,29.93,NNE,19,9.6,9.6,80,0.00,BKN,,0.01,47.0,WeatherDisplay:10.37,2013-04-30 23:18:00,
2013-04-30 19:23:00,72.0,65.5,29.93,NNE,19,6.9,6.9,80,0.00,BKN,,0.01,40.0,WeatherDisplay:10.37,2013-04-30 23:23:00,
2013-04-30 19:28:00,71.8,65.3,29.93,NNE,16,8.3,8.3,80,0.00,BKN,,0.01,35.0,WeatherDisplay:10.37,2013-04-30 23:28:00,
2013-04-30 19:33:00,71.6,65.5,29.95,NNE,19,11.5,11.5,81,0.00,BKN,,0.01,30.0,WeatherDisplay:10.37,2013-04-30 23:33:00,
2013-04-30 19:38:00,71.6,65.8,29.95,NNE,20,8.1,8.1,82,0.00,BKN,,0.01,25.0,WeatherDisplay:10.37,2013-04-30 23:38:00,
2013-04-30 19:43:00,71.4,65.6,29.95,NNE,17,9.2,9.2,82,0.00,BKN,,0.01,19.0,WeatherDisplay:10.37,2013-04-30 23:43:00,
2013-04-30 19:48:00,71.2,65.8,29.95,NNE,18,2.3,2.3,83,0.00,BKN,,0.01,14.0,WeatherDisplay:10.37,2013-04-30 23:48:00,
2013-04-30 19:53:00,71.0,65.6,29.95,NNE,18,2.3,2.3,83,0.00,BKN,,0.01,7.0,WeatherDisplay:10.37,2013-04-30 23:53:00,
2013-04-30 19:58:00,70.8,65.7,29.95,NNE,19,5.8,6.0,84,0.00,BKN,,0.01,0.0,WeatherDisplay:10.37,2013-04-30 23:58:00,
2013-04-30 20:03:00,70.6,65.5,29.95,NNE,19,6.9,6.9,84,0.00,BKN,,0.01,0.0,WeatherDisplay:10.37,2013-05-01 00:03:00,
2013-04-30 20:08:00,70.4,65.3,29.95,NNE,22,8.3,8.3,84,0.00,BKN,,0.01,0.0,WeatherDisplay:10.37,2013-05-01 00:08:00,
2013-04-30 20:13:00,70.3,65.6,29.95,NNE,15,4.6,4.6,85,0.00,BKN,,0.01,0.0,WeatherDisplay:10.37,2013-05-01 00:13:00,
2013-04-30 20:18:00,70.1,65.7,29.95,NNE,15,6.9,6.9,86,0.00,BKN,,0.01,0.0,WeatherDisplay:10.37,2013-05-01 00:18:00,
2013-04-30 20:23:00,70.0,65.6,29.95,NNE,19,6.9,6.9,86,0.00,BKN,,0.01,0.0,WeatherDisplay:10.37,2013-05-01 00:23:00,
2013-04-30 20:28:00,69.9,65.5,29.95,NNE,19,1.1,1.1,86,0.00,BKN,,0.01,0.0,WeatherDisplay:10.37,2013-05-01 00:28:00,
2013-04-30 20:33:00,69.6,65.2,29.96,NNE,19,2.8,2.8,86,0.00,BKN,,0.01,0.0,WeatherDisplay:10.37,2013-05-01 00:33:00,
2013-04-30 20:38:00,69.5,65.5,29.96,NNE,15,6.9,6.9,87,0.00,BKN,,0.01,0.0,WeatherDisplay:10.37,2013-05-01 00:38:00,
2013-04-30 20:43:00,69.5,65.5,29.96,NNE,19,2.3,2.6,87,0.00,BKN,,0.01,0.0,WeatherDisplay:10.37,2013-05-01 00:43:00,
2013-04-30 20:48:00,69.4,65.4,29.96,NNE,19,2.3,2.3,87,0.00,BKN,,0.01,0.0,WeatherDisplay:10.37,2013-05-01 00:48:00,
2013-04-30 20:53:00,69.2,65.2,29.96,NNE,19,4.6,4.6,87,0.00,BKN,,0.01,0.0,WeatherDisplay:10.37,2013-05-01 00:53:00,
2013-04-30 20:58:00,69.3,65.3,29.96,NNE,19,1.1,1.1,87,0.00,BKN,,0.01,0.0,WeatherDisplay:10.37,2013-05-01 00:58:00,
2013-04-30 21:03:00,69.1,65.1,29.97,NNE,19,0.0,0.0,87,0.00,BKN,,0.01,0.0,WeatherDisplay:10.37,2013-05-01 01:03:00,
2013-04-30 21:08:00,68.8,65.1,29.97,NNE,19,0.0,0.0,88,0.00,BKN,,0.01,0.0,WeatherDisplay:10.37,2013-05-01 01:08:00,
2013-04-30 21:13:00,68.6,64.9,29.97,NNE,19,0.0,0.0,88,0.00,BKN,,0.01,0.0,WeatherDisplay:10.37,2013-05-01 01:13:00,
2013-04-30 21:18:00,68.3,64.9,29.98,NNE,19,1.4,0.0,89,0.00,BKN,,0.01,0.0,WeatherDisplay:10.37,2013-05-01 01:18:00,
2013-04-30 21:23:00,68.2,64.8,29.98,NNE,19,0.0,0.0,89,0.00,BKN,,0.01,0.0,WeatherDisplay:10.37,2013-05-01 01:23:00,
2013-04-30 21:29:00,67.8,64.4,29.97,NNE,19,0.0,0.0,89,0.00,BKN,,0.01,0.0,WeatherDisplay:10.37,2013-05-01 01:29:00,
2013-04-30 21:34:00,67.6,64.6,29.97,NNE,19,1.1,1.1,90,0.00,BKN,,0.01,0.0,WeatherDisplay:10.37,2013-05-01 01:34:00,
2013-04-30 21:39:00,67.4,64.4,29.97,NNE,19,0.0,0.0,90,0.00,BKN,,0.01,0.0,WeatherDisplay:10.37,2013-05-01 01:39:00,
2013-04-30 21:44:00,67.2,64.2,29.97,NNE,19,2.3,0.0,90,0.00,BKN,,0.01,0.0,WeatherDisplay:10.37,2013-05-01 01:44:00,
2013-04-30 21:49:00,67.2,64.5,29.97,NNE,19,0.0,0.0,91,0.00,BKN,,0.01,0.0,WeatherDisplay:10.37,2013-05-01 01:49:00,
2013-04-30 21:54:00,67.2,64.5,29.97,NNE,19,0.0,0.0,91,0.00,BKN,,0.01,0.0,WeatherDisplay:10.37,2013-05-01 01:54:00,
2013-04-30 21:59:00,67.1,64.4,29.98,NNE,19,0.0,0.0,91,0.00,BKN,,0.01,0.0,WeatherDisplay:10.37,2013-05-01 01:59:00,
2013-04-30 22:04:00,67.1,64.4,29.98,NNE,19,0.0,0.0,91,0.00,BKN,,0.01,0.0,WeatherDisplay:10.37,2013-05-01 02:04:00,
2013-04-30 22:09:00,66.8,64.1,29.98,NNE,19,0.0,0.0,91,0.00,BKN,,0.01,0.0,WeatherDisplay:10.37,2013-05-01 02:09:00,
2013-04-30 22:14:00,66.6,64.2,29.98,NNE,19,0.0,0.0,92,0.00,BKN,,0.01,0.0,WeatherDisplay:10.37,2013-05-01 02:14:00,
2013-04-30 22:19:00,66.4,64.0,29.98,NNE,19,0.0,0.0,92,0.00,BKN,,0.01,0.0,WeatherDisplay:10.37,2013-05-01 02:19:00,
2013-04-30 22:24:00,66.4,64.0,29.98,NNE,19,0.0,0.0,92,0.00,BKN,,0.01,0.0,WeatherDisplay:10.37,2013-05-01 02:24:00,
2013-04-30 22:29:00,66.4,64.0,29.98,NNE,19,0.0,0.0,92,0.00,BKN,,0.01,0.0,WeatherDisplay:10.37,2013-05-01 02:29:00,
2013-04-30 22:34:00,66.1,63.7,29.98,NNE,19,0.0,0.0,92,0.00,BKN,,0.01,0.0,WeatherDisplay:10.37,2013-05-01 02:34:00,
2013-04-30 22:39:00,66.1,63.7,29.98,NNE,19,0.0,0.0,92,0.00,BKN,,0.01,0.0,WeatherDisplay:10.37,2013-05-01 02:39:00,
2013-04-30 22:44:00,66.0,63.6,29.98,NNE,19,0.0,0.0,92,0.00,BKN,,0.01,0.0,WeatherDisplay:10.37,2013-05-01 02:44:00,
2013-04-30 22:49:00,66.1,64.0,29.98,NNE,19,1.1,0.0,93,0.00,BKN,,0.01,0.0,WeatherDisplay:10.37,2013-05-01 02:49:00,
2013-04-30 22:54:00,66.4,64.3,29.98,NNE,19,1.1,1.1,93,0.00,BKN,,0.01,0.0,WeatherDisplay:10.37,2013-05-01 02:54:00,
2013-04-30 22:59:00,66.4,64.3,29.98,NNE,19,0.0,0.0,93,0.00,BKN,,0.01,0.0,WeatherDisplay:10.37,2013-05-01 02:59:00,
2013-04-30 23:04:00,66.5,64.1,29.98,NNE,19,0.0,0.0,92,0.00,BKN,,0.01,0.0,WeatherDisplay:10.37,2013-05-01 03:04:00,
2013-04-30 23:09:00,66.2,63.8,29.98,NNE,19,0.0,0.0,92,0.00,BKN,,0.01,0.0,WeatherDisplay:10.37,2013-05-01 03:09:00,
2013-04-30 23:14:00,66.0,63.6,29.98,NNE,19,0.0,0.0,92,0.00,BKN,,0.01,0.0,WeatherDisplay:10.37,2013-05-01 03:14:00,
2013-04-30 23:19:00,65.7,63.3,29.98,NNE,19,0.0,0.0,92,0.00,BKN,,0.01,0.0,WeatherDisplay:10.37,2013-05-01 03:19:00,
2013-04-30 23:24:00,65.7,63.6,29.98,NNE,19,0.0,0.0,93,0.00,BKN,,0.01,0.0,WeatherDisplay:10.37,2013-05-01 03:24:00,
2013-04-30 23:29:00,65.7,63.3,29.98,NNE,19,0.0,0.0,92,0.00,BKN,,0.01,0.0,WeatherDisplay:10.37,2013-05-01 03:29:00,
2013-04-30 23:34:00,65.5,63.1,29.98,NNE,19,0.0,0.0,92,0.00,BKN,,0.01,0.0,WeatherDisplay:10.37,2013-05-01 03:34:00,
2013-04-30 23:39:00,65.2,63.1,29.98,NNE,19,0.0,0.0,93,0.00,BKN,,0.01,0.0,WeatherDisplay:10.37,2013-05-01 03:39:00,
2013-04-30 23:44:00,65.2,63.1,29.98,NNE,19,0.0,0.0,93,0.00,BKN,,0.01,0.0,WeatherDisplay:10.37,2013-05-01 03:44:00,
2013-04-30 23:49:00,64.8,62.7,29.98,NNE,19,0.0,0.0,93,0.00,BKN,,0.01,0.0,WeatherDisplay:10.37,2013-05-01 03:49:00,
2013-04-30 23:54:00,64.7,62.6,29.98,NNE,19,0.0,0.0,93,0.00,BKN,,0.01,0.0,WeatherDisplay:10.37,2013-05-01 03:54:00,
2013-04-30 23:59:00,64.8,62.7,29.99,NNE,19,0.0,0.0,93,0.00,BKN,,0.01,0.0,WeatherDisplay:10.37,2013-05-01 03:59:00,